sensor_id;sensor_type;location;lat;lon;timestamp;P1;durP1;ratioP1;P2;durP2;ratioP2
50495;SDS011;38806;51.554;5.704;2022-08-21T00:00:38;14.15;;;10.63;;
50495;SDS011;38806;51.554;5.704;2022-08-21T00:02:44;20.35;;;12.07;;
50495;SDS011;38806;51.554;5.704;2022-08-21T00:04:47;23.02;;;13.52;;
50495;SDS011;38806;51.554;5.704;2022-08-21T00:06:49;19.15;;;12.65;;
50495;SDS011;38806;51.554;5.704;2022-08-21T00:08:51;16.98;;;12.00;;
50495;SDS011;38806;51.554;5.704;2022-08-21T00:10:51;19.52;;;11.57;;
50495;SDS011;38806;51.554;5.704;2022-08-21T00:12:51;17.70;;;11.90;;
50495;SDS011;38806;51.554;5.704;2022-08-21T00:14:52;17.15;;;10.85;;
50495;SDS011;38806;51.554;5.704;2022-08-21T00:16:53;17.85;;;12.50;;
50495;SDS011;38806;51.554;5.704;2022-08-21T00:18:53;15.93;;;10.65;;
50495;SDS011;38806;51.554;5.704;2022-08-21T00:20:53;17.98;;;12.52;;
50495;SDS011;38806;51.554;5.704;2022-08-21T00:22:54;15.77;;;12.35;;
50495;SDS011;38806;51.554;5.704;2022-08-21T00:24:54;16.65;;;11.15;;
50495;SDS011;38806;51.554;5.704;2022-08-21T00:26:54;15.07;;;10.63;;
50495;SDS011;38806;51.554;5.704;2022-08-21T00:28:55;15.45;;;10.43;;
50495;SDS011;38806;51.554;5.704;2022-08-21T00:30:55;16.80;;;12.35;;
50495;SDS011;38806;51.554;5.704;2022-08-21T00:32:56;19.63;;;12.45;;
50495;SDS011;38806;51.554;5.704;2022-08-21T00:34:58;14.45;;;10.45;;
50495;SDS011;38806;51.554;5.704;2022-08-21T00:36:58;15.48;;;11.38;;
50495;SDS011;38806;51.554;5.704;2022-08-21T00:38:58;14.00;;;11.48;;
50495;SDS011;38806;51.554;5.704;2022-08-21T00:41:00;16.17;;;11.05;;
50495;SDS011;38806;51.554;5.704;2022-08-21T00:43:02;14.07;;;10.45;;
50495;SDS011;38806;51.554;5.704;2022-08-21T00:45:04;15.45;;;11.35;;
50495;SDS011;38806;51.554;5.704;2022-08-21T00:47:05;14.00;;;10.52;;
50495;SDS011;38806;51.554;5.704;2022-08-21T00:49:06;16.75;;;11.68;;
50495;SDS011;38806;51.554;5.704;2022-08-21T00:51:10;17.85;;;11.82;;
50495;SDS011;38806;51.554;5.704;2022-08-21T00:53:14;17.40;;;12.20;;
50495;SDS011;38806;51.554;5.704;2022-08-21T00:55:16;15.13;;;11.02;;
50495;SDS011;38806;51.554;5.704;2022-08-21T00:57:19;17.35;;;11.20;;
50495;SDS011;38806;51.554;5.704;2022-08-21T00:59:23;20.67;;;14.77;;
50495;SDS011;38806;51.554;5.704;2022-08-21T01:01:25;22.00;;;13.60;;
50495;SDS011;38806;51.554;5.704;2022-08-21T01:03:26;17.00;;;11.90;;
50495;SDS011;38806;51.554;5.704;2022-08-21T01:05:26;18.23;;;12.75;;
50495;SDS011;38806;51.554;5.704;2022-08-21T01:07:26;17.20;;;13.23;;
50495;SDS011;38806;51.554;5.704;2022-08-21T01:09:27;16.23;;;13.45;;
50495;SDS011;38806;51.554;5.704;2022-08-21T01:11:27;16.13;;;12.02;;
50495;SDS011;38806;51.554;5.704;2022-08-21T01:13:28;22.40;;;13.70;;
50495;SDS011;38806;51.554;5.704;2022-08-21T01:15:33;19.50;;;13.38;;
50495;SDS011;38806;51.554;5.704;2022-08-21T01:17:35;15.07;;;11.32;;
50495;SDS011;38806;51.554;5.704;2022-08-21T01:19:36;16.27;;;12.50;;
50495;SDS011;38806;51.554;5.704;2022-08-21T01:21:36;15.45;;;11.68;;
50495;SDS011;38806;51.554;5.704;2022-08-21T01:23:38;20.42;;;13.48;;
50495;SDS011;38806;51.554;5.704;2022-08-21T01:25:40;21.27;;;13.13;;
50495;SDS011;38806;51.554;5.704;2022-08-21T01:27:41;17.25;;;12.52;;
50495;SDS011;38806;51.554;5.704;2022-08-21T01:29:43;19.65;;;13.80;;
50495;SDS011;38806;51.554;5.704;2022-08-21T01:31:47;23.02;;;13.20;;
50495;SDS011;38806;51.554;5.704;2022-08-21T01:33:47;17.13;;;12.50;;
50495;SDS011;38806;51.554;5.704;2022-08-21T01:35:47;16.00;;;11.88;;
50495;SDS011;38806;51.554;5.704;2022-08-21T01:37:48;21.55;;;13.57;;
50495;SDS011;38806;51.554;5.704;2022-08-21T01:39:48;17.15;;;11.40;;
50495;SDS011;38806;51.554;5.704;2022-08-21T01:41:49;22.20;;;13.70;;
50495;SDS011;38806;51.554;5.704;2022-08-21T01:43:49;16.90;;;12.35;;
50495;SDS011;38806;51.554;5.704;2022-08-21T01:45:49;18.25;;;13.02;;
50495;SDS011;38806;51.554;5.704;2022-08-21T01:47:50;18.30;;;12.75;;
50495;SDS011;38806;51.554;5.704;2022-08-21T01:49:50;20.05;;;13.35;;
50495;SDS011;38806;51.554;5.704;2022-08-21T01:51:51;16.10;;;12.02;;
50495;SDS011;38806;51.554;5.704;2022-08-21T01:53:51;21.15;;;12.73;;
50495;SDS011;38806;51.554;5.704;2022-08-21T01:55:52;20.40;;;12.13;;
50495;SDS011;38806;51.554;5.704;2022-08-21T01:57:52;17.10;;;12.25;;
50495;SDS011;38806;51.554;5.704;2022-08-21T01:59:53;14.50;;;11.68;;
50495;SDS011;38806;51.554;5.704;2022-08-21T02:01:54;17.75;;;12.55;;
50495;SDS011;38806;51.554;5.704;2022-08-21T02:03:55;15.27;;;11.77;;
50495;SDS011;38806;51.554;5.704;2022-08-21T02:05:55;16.80;;;11.38;;
50495;SDS011;38806;51.554;5.704;2022-08-21T02:07:56;18.08;;;11.15;;
50495;SDS011;38806;51.554;5.704;2022-08-21T02:09:57;17.88;;;12.52;;
50495;SDS011;38806;51.554;5.704;2022-08-21T02:11:57;18.48;;;14.38;;
50495;SDS011;38806;51.554;5.704;2022-08-21T02:13:58;18.58;;;13.02;;
50495;SDS011;38806;51.554;5.704;2022-08-21T02:15:58;20.83;;;13.98;;
50495;SDS011;38806;51.554;5.704;2022-08-21T02:18:00;19.77;;;13.40;;
50495;SDS011;38806;51.554;5.704;2022-08-21T02:20:01;23.40;;;13.15;;
50495;SDS011;38806;51.554;5.704;2022-08-21T02:22:03;22.20;;;14.43;;
50495;SDS011;38806;51.554;5.704;2022-08-21T02:24:04;17.02;;;13.85;;
50495;SDS011;38806;51.554;5.704;2022-08-21T02:26:05;22.48;;;14.13;;
50495;SDS011;38806;51.554;5.704;2022-08-21T02:28:11;20.50;;;13.75;;
50495;SDS011;38806;51.554;5.704;2022-08-21T02:30:13;21.23;;;14.10;;
50495;SDS011;38806;51.554;5.704;2022-08-21T02:32:15;18.52;;;13.27;;
50495;SDS011;38806;51.554;5.704;2022-08-21T02:34:16;17.92;;;14.55;;
50495;SDS011;38806;51.554;5.704;2022-08-21T02:36:16;21.42;;;13.95;;
50495;SDS011;38806;51.554;5.704;2022-08-21T02:38:17;19.25;;;14.32;;
50495;SDS011;38806;51.554;5.704;2022-08-21T02:40:24;26.48;;;16.17;;
50495;SDS011;38806;51.554;5.704;2022-08-21T02:42:26;21.10;;;15.80;;
50495;SDS011;38806;51.554;5.704;2022-08-21T02:44:26;19.45;;;13.75;;
50495;SDS011;38806;51.554;5.704;2022-08-21T02:46:27;22.20;;;15.13;;
50495;SDS011;38806;51.554;5.704;2022-08-21T02:48:28;22.02;;;14.55;;
50495;SDS011;38806;51.554;5.704;2022-08-21T02:50:41;20.08;;;13.25;;
50495;SDS011;38806;51.554;5.704;2022-08-21T02:52:44;20.50;;;14.90;;
50495;SDS011;38806;51.554;5.704;2022-08-21T02:54:45;18.40;;;14.10;;
50495;SDS011;38806;51.554;5.704;2022-08-21T02:56:45;23.58;;;15.05;;
50495;SDS011;38806;51.554;5.704;2022-08-21T02:58:47;17.75;;;13.73;;
50495;SDS011;38806;51.554;5.704;2022-08-21T03:00:49;19.98;;;14.85;;
50495;SDS011;38806;51.554;5.704;2022-08-21T03:02:51;20.88;;;14.35;;
50495;SDS011;38806;51.554;5.704;2022-08-21T03:04:51;20.50;;;14.82;;
50495;SDS011;38806;51.554;5.704;2022-08-21T03:06:51;20.33;;;13.82;;
50495;SDS011;38806;51.554;5.704;2022-08-21T03:08:52;22.23;;;13.15;;
50495;SDS011;38806;51.554;5.704;2022-08-21T03:10:52;17.10;;;12.93;;
50495;SDS011;38806;51.554;5.704;2022-08-21T03:12:53;20.05;;;15.13;;
50495;SDS011;38806;51.554;5.704;2022-08-21T03:14:54;21.75;;;13.18;;
50495;SDS011;38806;51.554;5.704;2022-08-21T03:16:54;21.30;;;15.93;;
50495;SDS011;38806;51.554;5.704;2022-08-21T03:18:55;24.92;;;15.35;;
50495;SDS011;38806;51.554;5.704;2022-08-21T03:20:55;22.80;;;15.20;;
50495;SDS011;38806;51.554;5.704;2022-08-21T03:22:56;23.95;;;17.30;;
50495;SDS011;38806;51.554;5.704;2022-08-21T03:24:56;25.48;;;15.77;;
50495;SDS011;38806;51.554;5.704;2022-08-21T03:26:57;31.67;;;18.70;;
50495;SDS011;38806;51.554;5.704;2022-08-21T03:28:57;25.70;;;16.50;;
50495;SDS011;38806;51.554;5.704;2022-08-21T03:30:58;23.77;;;18.48;;
50495;SDS011;38806;51.554;5.704;2022-08-21T03:32:58;26.27;;;18.38;;
50495;SDS011;38806;51.554;5.704;2022-08-21T03:34:59;28.98;;;18.75;;
50495;SDS011;38806;51.554;5.704;2022-08-21T03:37:00;28.77;;;18.92;;
50495;SDS011;38806;51.554;5.704;2022-08-21T03:39:00;28.08;;;21.23;;
50495;SDS011;38806;51.554;5.704;2022-08-21T03:41:01;27.27;;;18.48;;
50495;SDS011;38806;51.554;5.704;2022-08-21T03:43:01;25.60;;;19.17;;
50495;SDS011;38806;51.554;5.704;2022-08-21T03:45:02;30.08;;;20.98;;
50495;SDS011;38806;51.554;5.704;2022-08-21T03:47:03;24.50;;;17.90;;
50495;SDS011;38806;51.554;5.704;2022-08-21T03:49:03;26.75;;;18.45;;
50495;SDS011;38806;51.554;5.704;2022-08-21T03:51:04;26.42;;;19.10;;
50495;SDS011;38806;51.554;5.704;2022-08-21T03:53:06;22.60;;;18.95;;
50495;SDS011;38806;51.554;5.704;2022-08-21T03:55:07;24.52;;;17.10;;
50495;SDS011;38806;51.554;5.704;2022-08-21T03:57:07;26.17;;;17.38;;
50495;SDS011;38806;51.554;5.704;2022-08-21T03:59:08;25.33;;;17.52;;
50495;SDS011;38806;51.554;5.704;2022-08-21T04:01:09;27.77;;;18.52;;
50495;SDS011;38806;51.554;5.704;2022-08-21T04:03:09;25.73;;;19.85;;
50495;SDS011;38806;51.554;5.704;2022-08-21T04:05:10;27.05;;;19.15;;
50495;SDS011;38806;51.554;5.704;2022-08-21T04:07:13;29.67;;;19.90;;
50495;SDS011;38806;51.554;5.704;2022-08-21T04:09:13;26.08;;;18.65;;
50495;SDS011;38806;51.554;5.704;2022-08-21T04:11:14;28.20;;;18.58;;
50495;SDS011;38806;51.554;5.704;2022-08-21T04:13:14;39.30;;;21.38;;
50495;SDS011;38806;51.554;5.704;2022-08-21T04:15:15;31.40;;;20.85;;
50495;SDS011;38806;51.554;5.704;2022-08-21T04:17:15;28.40;;;20.38;;
50495;SDS011;38806;51.554;5.704;2022-08-21T04:19:15;30.17;;;20.50;;
50495;SDS011;38806;51.554;5.704;2022-08-21T04:21:15;31.67;;;21.13;;
50495;SDS011;38806;51.554;5.704;2022-08-21T04:23:17;28.00;;;20.08;;
50495;SDS011;38806;51.554;5.704;2022-08-21T04:25:21;29.90;;;18.65;;
50495;SDS011;38806;51.554;5.704;2022-08-21T04:27:22;29.85;;;19.25;;
50495;SDS011;38806;51.554;5.704;2022-08-21T04:29:23;26.23;;;18.08;;
50495;SDS011;38806;51.554;5.704;2022-08-21T04:31:24;24.23;;;17.73;;
50495;SDS011;38806;51.554;5.704;2022-08-21T04:33:24;23.90;;;17.30;;
50495;SDS011;38806;51.554;5.704;2022-08-21T04:35:26;24.33;;;17.05;;
50495;SDS011;38806;51.554;5.704;2022-08-21T04:37:27;22.33;;;16.63;;
50495;SDS011;38806;51.554;5.704;2022-08-21T04:39:28;26.88;;;17.02;;
50495;SDS011;38806;51.554;5.704;2022-08-21T04:41:28;23.55;;;16.88;;
50495;SDS011;38806;51.554;5.704;2022-08-21T04:43:28;22.27;;;15.85;;
50495;SDS011;38806;51.554;5.704;2022-08-21T04:45:33;25.90;;;16.63;;
50495;SDS011;38806;51.554;5.704;2022-08-21T04:47:36;28.27;;;17.30;;
50495;SDS011;38806;51.554;5.704;2022-08-21T04:49:36;29.27;;;17.73;;
50495;SDS011;38806;51.554;5.704;2022-08-21T04:51:36;27.40;;;17.58;;
50495;SDS011;38806;51.554;5.704;2022-08-21T04:53:40;25.88;;;17.40;;
50495;SDS011;38806;51.554;5.704;2022-08-21T04:55:43;24.80;;;16.48;;
50495;SDS011;38806;51.554;5.704;2022-08-21T04:57:45;22.58;;;16.42;;
50495;SDS011;38806;51.554;5.704;2022-08-21T04:59:47;31.05;;;19.27;;
50495;SDS011;38806;51.554;5.704;2022-08-21T05:01:50;24.50;;;18.30;;
50495;SDS011;38806;51.554;5.704;2022-08-21T05:03:52;33.05;;;21.75;;
50495;SDS011;38806;51.554;5.704;2022-08-21T05:05:55;31.65;;;19.67;;
50495;SDS011;38806;51.554;5.704;2022-08-21T05:07:56;31.05;;;21.95;;
50495;SDS011;38806;51.554;5.704;2022-08-21T05:09:59;35.38;;;23.98;;
50495;SDS011;38806;51.554;5.704;2022-08-21T05:12:01;32.97;;;22.35;;
50495;SDS011;38806;51.554;5.704;2022-08-21T05:14:02;35.65;;;23.05;;
50495;SDS011;38806;51.554;5.704;2022-08-21T05:16:03;40.80;;;23.63;;
50495;SDS011;38806;51.554;5.704;2022-08-21T05:18:03;35.58;;;22.88;;
50495;SDS011;38806;51.554;5.704;2022-08-21T05:20:04;33.47;;;22.10;;
50495;SDS011;38806;51.554;5.704;2022-08-21T05:22:05;35.35;;;22.20;;
50495;SDS011;38806;51.554;5.704;2022-08-21T05:24:05;31.13;;;19.65;;
50495;SDS011;38806;51.554;5.704;2022-08-21T05:26:06;37.10;;;24.83;;
50495;SDS011;38806;51.554;5.704;2022-08-21T05:28:06;33.80;;;19.63;;
50495;SDS011;38806;51.554;5.704;2022-08-21T05:30:07;39.30;;;23.63;;
50495;SDS011;38806;51.554;5.704;2022-08-21T05:32:12;38.33;;;21.65;;
50495;SDS011;38806;51.554;5.704;2022-08-21T05:34:14;27.45;;;19.73;;
50495;SDS011;38806;51.554;5.704;2022-08-21T05:36:18;31.50;;;19.52;;
50495;SDS011;38806;51.554;5.704;2022-08-21T05:38:18;35.45;;;21.55;;
50495;SDS011;38806;51.554;5.704;2022-08-21T05:40:19;29.58;;;20.33;;
50495;SDS011;38806;51.554;5.704;2022-08-21T05:42:19;29.98;;;20.33;;
50495;SDS011;38806;51.554;5.704;2022-08-21T05:44:19;34.00;;;18.35;;
50495;SDS011;38806;51.554;5.704;2022-08-21T05:46:20;23.40;;;17.27;;
50495;SDS011;38806;51.554;5.704;2022-08-21T05:48:21;30.67;;;20.13;;
50495;SDS011;38806;51.554;5.704;2022-08-21T05:50:23;27.88;;;18.65;;
50495;SDS011;38806;51.554;5.704;2022-08-21T05:52:23;33.35;;;20.30;;
50495;SDS011;38806;51.554;5.704;2022-08-21T05:54:24;32.70;;;21.23;;
50495;SDS011;38806;51.554;5.704;2022-08-21T05:56:24;23.67;;;18.60;;
50495;SDS011;38806;51.554;5.704;2022-08-21T05:58:25;28.30;;;16.33;;
50495;SDS011;38806;51.554;5.704;2022-08-21T06:00:25;35.67;;;17.35;;
50495;SDS011;38806;51.554;5.704;2022-08-21T06:02:25;28.85;;;18.08;;
50495;SDS011;38806;51.554;5.704;2022-08-21T06:04:26;29.10;;;18.50;;
50495;SDS011;38806;51.554;5.704;2022-08-21T06:06:26;33.63;;;18.80;;
50495;SDS011;38806;51.554;5.704;2022-08-21T06:08:27;30.48;;;17.33;;
50495;SDS011;38806;51.554;5.704;2022-08-21T06:10:27;23.48;;;15.07;;
50495;SDS011;38806;51.554;5.704;2022-08-21T06:12:28;30.83;;;15.20;;
50495;SDS011;38806;51.554;5.704;2022-08-21T06:14:28;28.00;;;18.23;;
50495;SDS011;38806;51.554;5.704;2022-08-21T06:16:29;25.60;;;16.55;;
50495;SDS011;38806;51.554;5.704;2022-08-21T06:18:29;22.17;;;14.57;;
50495;SDS011;38806;51.554;5.704;2022-08-21T06:20:29;35.20;;;15.95;;
50495;SDS011;38806;51.554;5.704;2022-08-21T06:22:30;24.48;;;14.73;;
50495;SDS011;38806;51.554;5.704;2022-08-21T06:24:30;20.30;;;12.68;;
50495;SDS011;38806;51.554;5.704;2022-08-21T06:26:31;25.63;;;13.52;;
50495;SDS011;38806;51.554;5.704;2022-08-21T06:28:32;24.63;;;13.05;;
50495;SDS011;38806;51.554;5.704;2022-08-21T06:30:33;22.05;;;12.68;;
50495;SDS011;38806;51.554;5.704;2022-08-21T06:32:35;19.17;;;11.15;;
50495;SDS011;38806;51.554;5.704;2022-08-21T06:34:37;22.75;;;13.70;;
50495;SDS011;38806;51.554;5.704;2022-08-21T06:36:38;20.73;;;10.13;;
50495;SDS011;38806;51.554;5.704;2022-08-21T06:38:38;17.35;;;12.60;;
50495;SDS011;38806;51.554;5.704;2022-08-21T06:40:39;22.30;;;12.43;;
50495;SDS011;38806;51.554;5.704;2022-08-21T06:42:39;20.38;;;12.75;;
50495;SDS011;38806;51.554;5.704;2022-08-21T06:44:40;19.30;;;11.30;;
50495;SDS011;38806;51.554;5.704;2022-08-21T06:46:40;26.13;;;11.65;;
50495;SDS011;38806;51.554;5.704;2022-08-21T06:48:40;17.08;;;10.55;;
50495;SDS011;38806;51.554;5.704;2022-08-21T06:50:40;21.08;;;10.68;;
50495;SDS011;38806;51.554;5.704;2022-08-21T06:52:40;17.55;;;11.15;;
50495;SDS011;38806;51.554;5.704;2022-08-21T06:54:41;20.38;;;10.90;;
50495;SDS011;38806;51.554;5.704;2022-08-21T06:56:41;19.67;;;12.32;;
50495;SDS011;38806;51.554;5.704;2022-08-21T06:58:41;19.65;;;10.00;;
50495;SDS011;38806;51.554;5.704;2022-08-21T07:00:43;15.77;;;9.40;;
50495;SDS011;38806;51.554;5.704;2022-08-21T07:02:45;12.25;;;9.13;;
50495;SDS011;38806;51.554;5.704;2022-08-21T07:04:45;19.98;;;10.32;;
50495;SDS011;38806;51.554;5.704;2022-08-21T07:06:45;17.17;;;9.27;;
50495;SDS011;38806;51.554;5.704;2022-08-21T07:08:45;16.20;;;7.97;;
50495;SDS011;38806;51.554;5.704;2022-08-21T07:10:46;20.88;;;10.73;;
50495;SDS011;38806;51.554;5.704;2022-08-21T07:12:47;17.25;;;9.35;;
50495;SDS011;38806;51.554;5.704;2022-08-21T07:14:48;19.88;;;8.35;;
50495;SDS011;38806;51.554;5.704;2022-08-21T07:16:48;19.60;;;9.85;;
50495;SDS011;38806;51.554;5.704;2022-08-21T07:18:50;14.75;;;7.85;;
50495;SDS011;38806;51.554;5.704;2022-08-21T07:20:50;18.08;;;8.65;;
50495;SDS011;38806;51.554;5.704;2022-08-21T07:22:51;17.33;;;9.93;;
50495;SDS011;38806;51.554;5.704;2022-08-21T07:24:51;16.95;;;7.55;;
50495;SDS011;38806;51.554;5.704;2022-08-21T07:26:51;16.88;;;8.75;;
50495;SDS011;38806;51.554;5.704;2022-08-21T07:28:52;19.33;;;7.80;;
50495;SDS011;38806;51.554;5.704;2022-08-21T07:30:54;15.82;;;7.72;;
50495;SDS011;38806;51.554;5.704;2022-08-21T07:32:56;11.80;;;7.90;;
50495;SDS011;38806;51.554;5.704;2022-08-21T07:34:57;20.85;;;9.18;;
50495;SDS011;38806;51.554;5.704;2022-08-21T07:36:57;16.08;;;7.13;;
50495;SDS011;38806;51.554;5.704;2022-08-21T07:38:58;15.82;;;8.43;;
50495;SDS011;38806;51.554;5.704;2022-08-21T07:40:59;14.88;;;7.47;;
50495;SDS011;38806;51.554;5.704;2022-08-21T07:43:01;17.95;;;6.35;;
50495;SDS011;38806;51.554;5.704;2022-08-21T07:45:01;12.63;;;6.13;;
50495;SDS011;38806;51.554;5.704;2022-08-21T07:47:02;14.27;;;6.72;;
50495;SDS011;38806;51.554;5.704;2022-08-21T07:49:02;14.80;;;7.15;;
50495;SDS011;38806;51.554;5.704;2022-08-21T07:51:05;18.63;;;6.93;;
50495;SDS011;38806;51.554;5.704;2022-08-21T07:53:08;11.40;;;6.20;;
50495;SDS011;38806;51.554;5.704;2022-08-21T07:55:10;18.65;;;7.97;;
50495;SDS011;38806;51.554;5.704;2022-08-21T07:57:12;18.25;;;7.20;;
50495;SDS011;38806;51.554;5.704;2022-08-21T07:59:13;16.33;;;6.15;;
50495;SDS011;38806;51.554;5.704;2022-08-21T08:01:13;12.73;;;6.45;;
50495;SDS011;38806;51.554;5.704;2022-08-21T08:03:13;13.77;;;5.63;;
50495;SDS011;38806;51.554;5.704;2022-08-21T08:05:14;15.82;;;7.45;;
50495;SDS011;38806;51.554;5.704;2022-08-21T08:07:15;11.10;;;6.05;;
50495;SDS011;38806;51.554;5.704;2022-08-21T08:09:16;17.27;;;6.53;;
50495;SDS011;38806;51.554;5.704;2022-08-21T08:11:16;13.15;;;6.07;;
50495;SDS011;38806;51.554;5.704;2022-08-21T08:13:17;18.63;;;5.65;;
50495;SDS011;38806;51.554;5.704;2022-08-21T08:15:18;18.58;;;5.95;;
50495;SDS011;38806;51.554;5.704;2022-08-21T08:17:21;14.45;;;6.45;;
50495;SDS011;38806;51.554;5.704;2022-08-21T08:19:23;12.65;;;5.75;;
50495;SDS011;38806;51.554;5.704;2022-08-21T08:21:23;14.30;;;7.57;;
50495;SDS011;38806;51.554;5.704;2022-08-21T08:23:23;11.60;;;6.05;;
50495;SDS011;38806;51.554;5.704;2022-08-21T08:25:24;12.43;;;5.30;;
50495;SDS011;38806;51.554;5.704;2022-08-21T08:27:27;14.25;;;5.88;;
50495;SDS011;38806;51.554;5.704;2022-08-21T08:29:27;18.30;;;6.45;;
50495;SDS011;38806;51.554;5.704;2022-08-21T08:31:28;15.88;;;5.40;;
50495;SDS011;38806;51.554;5.704;2022-08-21T08:33:28;13.57;;;5.68;;
50495;SDS011;38806;51.554;5.704;2022-08-21T08:35:28;13.35;;;5.90;;
50495;SDS011;38806;51.554;5.704;2022-08-21T08:37:29;15.52;;;5.97;;
50495;SDS011;38806;51.554;5.704;2022-08-21T08:39:29;16.70;;;6.07;;
50495;SDS011;38806;51.554;5.704;2022-08-21T08:41:30;11.35;;;4.72;;
50495;SDS011;38806;51.554;5.704;2022-08-21T08:43:32;11.05;;;4.68;;
50495;SDS011;38806;51.554;5.704;2022-08-21T08:45:34;10.43;;;4.03;;
50495;SDS011;38806;51.554;5.704;2022-08-21T08:47:44;10.23;;;5.65;;
50495;SDS011;38806;51.554;5.704;2022-08-21T08:54:17;11.13;;;3.92;;
50495;SDS011;38806;51.554;5.704;2022-08-21T08:56:28;9.98;;;3.47;;
50495;SDS011;38806;51.554;5.704;2022-08-21T08:58:32;11.10;;;4.30;;
50495;SDS011;38806;51.554;5.704;2022-08-21T09:00:37;10.25;;;4.32;;
50495;SDS011;38806;51.554;5.704;2022-08-21T09:02:39;11.02;;;4.15;;
50495;SDS011;38806;51.554;5.704;2022-08-21T09:04:41;11.40;;;3.92;;
50495;SDS011;38806;51.554;5.704;2022-08-21T09:11:48;9.05;;;3.58;;
50495;SDS011;38806;51.554;5.704;2022-08-21T09:14:02;10.23;;;4.13;;
50495;SDS011;38806;51.554;5.704;2022-08-21T09:16:30;11.75;;;4.60;;
50495;SDS011;38806;51.554;5.704;2022-08-21T09:23:17;8.63;;;3.60;;
50495;SDS011;38806;51.554;5.704;2022-08-21T09:25:33;8.27;;;3.45;;
50495;SDS011;38806;51.554;5.704;2022-08-21T09:27:39;7.45;;;3.40;;
50495;SDS011;38806;51.554;5.704;2022-08-21T09:29:42;7.75;;;3.47;;
50495;SDS011;38806;51.554;5.704;2022-08-21T09:31:44;13.15;;;3.17;;
50495;SDS011;38806;51.554;5.704;2022-08-21T09:33:45;11.63;;;2.95;;
50495;SDS011;38806;51.554;5.704;2022-08-21T09:35:50;6.45;;;2.13;;
50495;SDS011;38806;51.554;5.704;2022-08-21T09:37:56;6.60;;;2.00;;
50495;SDS011;38806;51.554;5.704;2022-08-21T09:39:58;8.90;;;2.42;;
50495;SDS011;38806;51.554;5.704;2022-08-21T09:42:00;7.43;;;1.88;;
50495;SDS011;38806;51.554;5.704;2022-08-21T09:44:03;6.43;;;2.72;;
50495;SDS011;38806;51.554;5.704;2022-08-21T09:46:11;6.80;;;2.50;;
50495;SDS011;38806;51.554;5.704;2022-08-21T09:48:22;12.00;;;2.53;;
50495;SDS011;38806;51.554;5.704;2022-08-21T09:50:26;7.15;;;1.67;;
50495;SDS011;38806;51.554;5.704;2022-08-21T09:52:26;8.18;;;3.00;;
50495;SDS011;38806;51.554;5.704;2022-08-21T09:54:31;5.70;;;1.98;;
50495;SDS011;38806;51.554;5.704;2022-08-21T09:56:39;6.97;;;2.20;;
50495;SDS011;38806;51.554;5.704;2022-08-21T10:01:24;6.45;;;2.08;;
50495;SDS011;38806;51.554;5.704;2022-08-21T10:03:25;7.68;;;1.90;;
50495;SDS011;38806;51.554;5.704;2022-08-21T10:05:26;7.63;;;1.83;;
50495;SDS011;38806;51.554;5.704;2022-08-21T10:07:30;7.03;;;3.05;;
50495;SDS011;38806;51.554;5.704;2022-08-21T10:09:31;15.15;;;3.20;;
50495;SDS011;38806;51.554;5.704;2022-08-21T10:11:33;7.55;;;2.72;;
50495;SDS011;38806;51.554;5.704;2022-08-21T10:15:55;8.00;;;2.67;;
50495;SDS011;38806;51.554;5.704;2022-08-21T10:24:38;6.22;;;2.20;;
50495;SDS011;38806;51.554;5.704;2022-08-21T10:27:05;8.43;;;2.88;;
50495;SDS011;38806;51.554;5.704;2022-08-21T10:29:13;8.38;;;2.17;;
50495;SDS011;38806;51.554;5.704;2022-08-21T10:36:09;6.57;;;2.15;;
50495;SDS011;38806;51.554;5.704;2022-08-21T10:40:58;4.47;;;2.22;;
50495;SDS011;38806;51.554;5.704;2022-08-21T10:48:16;6.15;;;1.58;;
50495;SDS011;38806;51.554;5.704;2022-08-21T10:50:57;6.22;;;2.53;;
50495;SDS011;38806;51.554;5.704;2022-08-21T10:57:57;9.27;;;2.08;;
50495;SDS011;38806;51.554;5.704;2022-08-21T11:00:11;5.75;;;1.85;;
50495;SDS011;38806;51.554;5.704;2022-08-21T11:06:41;6.88;;;2.60;;
50495;SDS011;38806;51.554;5.704;2022-08-21T11:08:49;7.07;;;1.70;;
50495;SDS011;38806;51.554;5.704;2022-08-21T11:13:02;9.45;;;4.07;;
50495;SDS011;38806;51.554;5.704;2022-08-21T11:15:23;8.02;;;1.70;;
50495;SDS011;38806;51.554;5.704;2022-08-21T11:17:27;4.73;;;1.63;;
50495;SDS011;38806;51.554;5.704;2022-08-21T11:21:45;6.95;;;2.22;;
50495;SDS011;38806;51.554;5.704;2022-08-21T11:26:17;5.38;;;1.92;;
50495;SDS011;38806;51.554;5.704;2022-08-21T11:28:33;5.68;;;2.47;;
50495;SDS011;38806;51.554;5.704;2022-08-21T11:30:48;8.10;;;2.10;;
50495;SDS011;38806;51.554;5.704;2022-08-21T11:33:08;5.72;;;2.10;;
50495;SDS011;38806;51.554;5.704;2022-08-21T11:45:21;6.78;;;2.63;;
50495;SDS011;38806;51.554;5.704;2022-08-21T11:50:14;7.25;;;2.63;;
50495;SDS011;38806;51.554;5.704;2022-08-21T11:52:24;8.85;;;3.10;;
50495;SDS011;38806;51.554;5.704;2022-08-21T11:54:35;6.82;;;3.40;;
50495;SDS011;38806;51.554;5.704;2022-08-21T11:56:41;9.32;;;3.75;;
50495;SDS011;38806;51.554;5.704;2022-08-21T11:58:48;7.72;;;3.00;;
50495;SDS011;38806;51.554;5.704;2022-08-21T12:00:55;7.88;;;3.40;;
50495;SDS011;38806;51.554;5.704;2022-08-21T12:03:08;5.40;;;3.17;;
50495;SDS011;38806;51.554;5.704;2022-08-21T12:05:22;9.05;;;2.80;;
50495;SDS011;38806;51.554;5.704;2022-08-21T12:07:44;6.15;;;2.97;;
50495;SDS011;38806;51.554;5.704;2022-08-21T12:09:54;6.43;;;3.10;;
50495;SDS011;38806;51.554;5.704;2022-08-21T12:16:10;6.78;;;3.03;;
50495;SDS011;38806;51.554;5.704;2022-08-21T12:18:20;5.88;;;3.13;;
50495;SDS011;38806;51.554;5.704;2022-08-21T12:20:26;7.75;;;2.78;;
50495;SDS011;38806;51.554;5.704;2022-08-21T12:22:39;7.40;;;3.83;;
50495;SDS011;38806;51.554;5.704;2022-08-21T12:24:48;6.93;;;2.30;;
50495;SDS011;38806;51.554;5.704;2022-08-21T12:26:53;6.13;;;2.08;;
50495;SDS011;38806;51.554;5.704;2022-08-21T12:29:07;6.07;;;2.25;;
50495;SDS011;38806;51.554;5.704;2022-08-21T12:31:19;5.50;;;2.70;;
50495;SDS011;38806;51.554;5.704;2022-08-21T12:33:23;5.68;;;2.40;;
50495;SDS011;38806;51.554;5.704;2022-08-21T12:35:31;6.13;;;3.13;;
50495;SDS011;38806;51.554;5.704;2022-08-21T12:39:44;8.10;;;4.13;;
50495;SDS011;38806;51.554;5.704;2022-08-21T12:42:01;5.50;;;3.25;;
50495;SDS011;38806;51.554;5.704;2022-08-21T12:44:15;6.82;;;3.10;;
50495;SDS011;38806;51.554;5.704;2022-08-21T12:46:21;10.40;;;3.90;;
50495;SDS011;38806;51.554;5.704;2022-08-21T12:48:34;6.43;;;2.88;;
50495;SDS011;38806;51.554;5.704;2022-08-21T12:50:48;8.48;;;4.25;;
50495;SDS011;38806;51.554;5.704;2022-08-21T12:52:59;6.07;;;2.90;;
50495;SDS011;38806;51.554;5.704;2022-08-21T12:55:06;12.18;;;4.03;;
50495;SDS011;38806;51.554;5.704;2022-08-21T12:57:18;10.95;;;2.97;;
50495;SDS011;38806;51.554;5.704;2022-08-21T12:59:24;5.10;;;2.58;;
50495;SDS011;38806;51.554;5.704;2022-08-21T13:01:29;7.18;;;2.65;;
50495;SDS011;38806;51.554;5.704;2022-08-21T13:03:35;9.93;;;3.78;;
50495;SDS011;38806;51.554;5.704;2022-08-21T13:05:37;5.10;;;2.65;;
50495;SDS011;38806;51.554;5.704;2022-08-21T13:07:37;6.38;;;2.40;;
50495;SDS011;38806;51.554;5.704;2022-08-21T13:09:47;6.30;;;1.80;;
50495;SDS011;38806;51.554;5.704;2022-08-21T13:11:50;7.22;;;2.30;;
50495;SDS011;38806;51.554;5.704;2022-08-21T13:13:51;4.85;;;1.60;;
50495;SDS011;38806;51.554;5.704;2022-08-21T13:15:57;5.55;;;2.17;;
50495;SDS011;38806;51.554;5.704;2022-08-21T13:18:00;5.88;;;1.95;;
50495;SDS011;38806;51.554;5.704;2022-08-21T13:20:04;6.15;;;2.08;;